Terminal Aerodrome Forecast
Issued by NWS Spokane, WA

Home | Current Version | Previous Version | Text Only | Print | Product List | Glossary On
Versions: 1 2 3 4 5 6 7 8 9 10 11 12 13 14 15 16 17 18 19 20 21 22 23 24 25 26 27 28 29 30 31 32 33 34 35 36 37 38 39 40 41 42 43 44 45 46 47 48 49 50
000
FTUS46 KOTX 192347 CCA
TAFGEG
TAF COR
KGEG 192347Z 2000/2024 21009KT P6SM SCT007 BKN018
     FM200100 16006KT P6SM SCT010 BKN070
     FM200600 17005KT P6SM BKN015 BKN040
     FM201300 13006KT 2SM BR BKN005 OVC012
     FM201600 08010KT 3SM -RASN BR BKN005 OVC010
     FM202000 15010KT 6SM -RA BR OVC006=

USA.gov is the U.S. government's official web portal to all federal, state and local government web resources and services.